createdAt,value
2022-12-08T00:01:09.826Z,4.00
2022-12-08T00:03:40.819Z,4.95
2022-12-08T00:06:39.859Z,3.50
2022-12-08T00:09:29.998Z,10.98
2022-12-08T00:12:09.402Z,6.82
2022-12-08T00:14:44.710Z,4.82
2022-12-08T00:17:16.953Z,2.92
2022-12-08T00:19:47.244Z,2.53
2022-12-08T00:22:17.888Z,6.80
2022-12-08T00:27:20.398Z,8.20
2022-12-08T00:29:51.122Z,4.22
2022-12-08T00:32:21.131Z,3.42
2022-12-08T00:34:51.809Z,7.63
2022-12-08T00:37:24.461Z,6.35
2022-12-08T00:39:55.162Z,6.25
2022-12-08T00:42:25.109Z,4.55
2022-12-08T00:45:05.305Z,4.15
2022-12-08T00:47:35.281Z,7.93
2022-12-08T00:50:06.749Z,7.85
2022-12-08T00:52:37.016Z,2.83
2022-12-08T00:55:08.212Z,9.27
2022-12-08T00:57:38.212Z,5.63
2022-12-08T01:00:09.502Z,6.28
2022-12-08T01:02:39.530Z,6.45
2022-12-08T01:05:10.525Z,10.38
2022-12-08T01:07:40.811Z,7.10
2022-12-08T01:10:11.778Z,9.60
2022-12-08T01:15:14.795Z,7.13
2022-12-08T01:17:44.891Z,6.72
2022-12-08T01:20:15.777Z,14.00
2022-12-08T01:25:15.119Z,8.02
2022-12-08T01:27:45.534Z,6.40
2022-12-08T01:30:16.018Z,16.30
2022-12-08T01:32:46.526Z,9.85
2022-12-08T01:35:16.613Z,6.82
2022-12-08T01:37:46.480Z,8.68
2022-12-08T01:40:16.873Z,8.70
2022-12-08T01:42:46.871Z,11.40
2022-12-08T01:45:27.263Z,5.78
2022-12-08T01:48:02.090Z,6.97
2022-12-08T01:50:33.180Z,7.38
2022-12-08T01:53:13.690Z,8.75
2022-12-08T01:55:48.270Z,5.43
2022-12-08T01:58:31.798Z,10.15
2022-12-08T02:01:02.308Z,6.00
2022-12-08T02:04:06.175Z,7.05
2022-12-08T02:06:42.648Z,9.60
2022-12-08T02:09:13.337Z,7.75
2022-12-08T02:11:43.862Z,8.98
2022-12-08T02:14:15.466Z,8.30
2022-12-08T02:16:51.804Z,9.60
2022-12-08T02:19:46.409Z,4.20
2022-12-08T02:22:51.786Z,5.60
2022-12-08T02:25:33.345Z,11.93
2022-12-08T02:28:23.286Z,27.38
2022-12-08T02:31:10.908Z,12.13
2022-12-08T02:34:17.329Z,10.80
2022-12-08T02:37:14.658Z,8.80
2022-12-08T02:40:03.060Z,11.57
2022-12-08T02:42:37.702Z,8.18
2022-12-08T02:45:16.453Z,6.43
2022-12-08T02:47:47.253Z,11.48
2022-12-08T02:50:17.695Z,17.65
2022-12-08T02:52:49.992Z,8.55
2022-12-08T02:55:22.731Z,7.43
2022-12-08T02:58:11.990Z,6.95
2022-12-08T03:01:02.796Z,11.18
2022-12-08T03:04:06.062Z,6.63
2022-12-08T03:06:54.971Z,8.82
2022-12-08T03:09:43.216Z,8.48
2022-12-08T03:12:20.433Z,8.90
2022-12-08T03:15:20.904Z,8.57
2022-12-08T03:17:56.660Z,24.60
2022-12-08T03:20:29.303Z,7.75
2022-12-08T03:23:02.119Z,9.75
2022-12-08T03:25:37.796Z,10.52
2022-12-08T03:28:08.299Z,11.90
2022-12-08T03:30:45.015Z,11.60
2022-12-08T03:33:28.118Z,7.30
2022-12-08T03:36:01.169Z,8.50
2022-12-08T03:38:43.437Z,9.93
2022-12-08T03:41:19.926Z,7.30
2022-12-08T03:43:57.113Z,7.85
2022-12-08T03:51:28.542Z,8.32
2022-12-08T03:56:33.263Z,8.07
2022-12-08T03:59:04.188Z,8.27
2022-12-08T04:01:34.768Z,9.85
2022-12-08T04:04:05.405Z,9.73
2022-12-08T04:06:35.398Z,6.25
2022-12-08T04:11:35.240Z,14.55
2022-12-08T04:14:05.388Z,6.75
2022-12-08T04:16:35.867Z,11.23
2022-12-08T04:19:05.951Z,5.45
2022-12-08T04:21:39.343Z,31.00
2022-12-08T04:24:09.589Z,7.60
2022-12-08T04:26:39.946Z,11.05
2022-12-08T04:29:09.944Z,9.68
2022-12-08T04:34:10.837Z,5.20
2022-12-08T04:36:41.311Z,6.68
2022-12-08T04:39:11.355Z,8.07
2022-12-08T04:44:10.930Z,5.20
2022-12-08T04:46:43.567Z,5.72
2022-12-08T04:49:14.367Z,6.30
2022-12-08T04:51:44.439Z,8.23
2022-12-08T04:56:44.065Z,9.95
2022-12-08T04:59:13.987Z,103.93
2022-12-08T05:01:44.462Z,19.35
2022-12-08T05:04:14.614Z,9.68
2022-12-08T05:06:44.377Z,25.42
2022-12-08T05:09:15.048Z,7.30
2022-12-08T05:11:48.754Z,11.35
2022-12-08T05:14:20.678Z,8.90
2022-12-08T05:16:50.856Z,8.63
2022-12-08T05:19:21.251Z,6.05
2022-12-08T05:21:51.957Z,9.50
2022-12-08T05:24:22.061Z,8.40
2022-12-08T05:26:52.479Z,10.70
2022-12-08T05:29:22.278Z,13.48
2022-12-08T05:34:22.245Z,8.77
2022-12-08T05:36:52.336Z,8.68
2022-12-08T05:39:23.248Z,7.05
2022-12-08T05:44:23.867Z,9.45
2022-12-08T05:46:53.950Z,9.27
2022-12-08T05:51:54.490Z,8.48
2022-12-08T05:54:25.140Z,18.08
2022-12-08T05:56:55.189Z,14.77
2022-12-08T05:59:25.730Z,88.90
2022-12-08T06:01:55.877Z,15.15
2022-12-08T06:04:26.424Z,21.30
2022-12-08T06:06:56.881Z,26.40
2022-12-08T06:09:27.490Z,13.30
2022-12-08T06:11:57.529Z,14.15
2022-12-08T06:14:27.504Z,9.82
2022-12-08T06:16:58.192Z,77.40
2022-12-08T06:21:58.198Z,9.32
2022-12-08T06:24:28.246Z,20.58
2022-12-08T06:26:59.617Z,122.65
2022-12-08T06:31:58.872Z,10.20
2022-12-08T06:34:29.505Z,14.57
2022-12-08T06:36:59.506Z,9.90
2022-12-08T06:39:29.337Z,8.07
2022-12-08T06:42:18.050Z,20.20
2022-12-08T06:44:48.421Z,7.78
2022-12-08T06:47:22.123Z,10.20
2022-12-08T06:49:56.125Z,6.80
2022-12-08T06:52:26.882Z,11.50
2022-12-08T06:54:56.902Z,21.15
2022-12-08T06:57:27.681Z,6.03
2022-12-08T06:59:57.727Z,34.72
2022-12-08T07:02:28.506Z,52.70
2022-12-08T07:04:58.577Z,39.92
2022-12-08T07:07:28.385Z,59.80
2022-12-08T07:10:01.232Z,48.22
2022-12-08T07:12:31.391Z,15.68
2022-12-08T07:15:01.855Z,11.32
2022-12-08T07:17:31.868Z,32.20
2022-12-08T07:22:32.322Z,38.92
2022-12-08T07:27:32.042Z,71.00
2022-12-08T07:30:02.473Z,26.98
2022-12-08T07:32:33.078Z,60.42
2022-12-08T07:35:03.125Z,27.90
2022-12-08T07:37:35.782Z,44.67
2022-12-08T07:40:08.014Z,33.95
2022-12-08T07:42:38.879Z,8.75
2022-12-08T07:45:09.573Z,44.25
2022-12-08T07:47:40.105Z,5.05
2022-12-08T07:50:10.569Z,7.07
2022-12-08T07:52:51.438Z,59.00
2022-12-08T07:55:22.106Z,12.35
2022-12-08T08:00:22.682Z,93.20
2022-12-08T08:02:53.290Z,31.67
2022-12-08T08:05:24.666Z,131.68
2022-12-08T08:07:55.204Z,109.32
2022-12-08T08:10:25.249Z,80.78
2022-12-08T08:15:24.995Z,110.20
2022-12-08T08:17:55.342Z,57.58
2022-12-08T08:20:25.926Z,112.75
2022-12-08T08:22:56.474Z,17.35
2022-12-08T08:25:26.271Z,20.02
2022-12-08T08:27:57.154Z,96.60
2022-12-08T08:30:27.233Z,103.90
2022-12-08T08:32:57.765Z,138.25
2022-12-08T08:35:27.979Z,138.25
2022-12-08T08:38:00.954Z,80.10
2022-12-08T08:40:31.003Z,138.23
2022-12-08T08:43:05.255Z,123.80
2022-12-08T08:45:36.603Z,4.35
2022-12-08T08:48:07.270Z,177.02
2022-12-08T08:50:37.826Z,143.63
2022-12-08T08:53:08.438Z,133.82
2022-12-08T08:55:41.292Z,94.70
2022-12-08T08:58:11.807Z,153.32
2022-12-08T09:00:42.220Z,131.13
2022-12-08T09:03:13.843Z,139.52
2022-12-08T09:05:44.217Z,129.13
2022-12-08T09:08:14.849Z,166.05
2022-12-08T09:10:45.035Z,167.77
2022-12-08T09:13:15.619Z,124.53
2022-12-08T09:15:48.527Z,115.25
2022-12-08T09:18:19.089Z,192.90
2022-12-08T09:20:49.249Z,101.05
2022-12-08T09:23:19.788Z,220.27
2022-12-08T09:25:49.915Z,130.98
2022-12-08T09:28:20.378Z,66.82
2022-12-08T09:30:55.353Z,61.38
2022-12-08T09:33:25.856Z,3.63
2022-12-08T09:35:55.957Z,146.30
2022-12-08T09:38:26.411Z,3.85
2022-12-08T09:40:56.910Z,38.10
2022-12-08T09:43:48.350Z,59.60
2022-12-08T09:48:58.475Z,3.92
2022-12-08T09:51:40.011Z,4.07
2022-12-08T09:54:22.208Z,5.85
2022-12-08T09:56:57.063Z,5.65
2022-12-08T09:59:33.101Z,7.00
2022-12-08T10:02:04.954Z,2.92
2022-12-08T10:04:40.577Z,2.55
2022-12-08T10:07:28.290Z,4.35
2022-12-08T10:10:09.446Z,1.90
2022-12-08T10:12:53.383Z,3.50
2022-12-08T10:15:45.206Z,1.90
2022-12-08T10:18:21.488Z,2.47
2022-12-08T10:20:53.466Z,2.13
2022-12-08T10:23:41.517Z,1.80
2022-12-08T10:26:19.346Z,2.50
2022-12-08T10:28:49.776Z,3.15
2022-12-08T10:31:25.449Z,2.97
2022-12-08T10:34:10.912Z,3.65
2022-12-08T10:37:00.420Z,3.47
2022-12-08T10:39:40.170Z,3.70
2022-12-08T10:42:19.263Z,3.92
2022-12-08T10:45:05.118Z,2.67
2022-12-08T10:47:42.513Z,9.35
2022-12-08T10:50:49.792Z,6.55
2022-12-08T10:53:26.871Z,8.90
2022-12-08T10:56:05.948Z,9.55
2022-12-08T10:58:42.528Z,11.48
2022-12-08T11:01:15.469Z,8.55
2022-12-08T11:03:55.806Z,11.70
2022-12-08T11:06:36.566Z,14.25
2022-12-08T11:09:50.616Z,11.20
2022-12-08T11:12:23.037Z,15.73
2022-12-08T11:15:02.539Z,10.48
2022-12-08T11:17:42.900Z,7.80
2022-12-08T11:20:13.286Z,5.93
2022-12-08T11:22:55.784Z,13.00
2022-12-08T11:25:29.668Z,8.98
2022-12-08T11:31:37.940Z,8.50
2022-12-08T11:34:11.482Z,9.27
2022-12-08T11:36:42.034Z,10.70
2022-12-08T11:39:14.074Z,8.35
2022-12-08T11:41:47.146Z,9.32
2022-12-08T11:44:39.461Z,6.40
2022-12-08T11:47:18.701Z,13.95
2022-12-08T11:49:57.792Z,8.23
2022-12-08T11:52:36.711Z,10.07
2022-12-08T11:55:25.169Z,7.10
2022-12-08T11:57:58.680Z,8.15
2022-12-08T12:00:28.756Z,10.60
2022-12-08T12:03:10.381Z,7.65
2022-12-08T12:06:53.364Z,6.40
2022-12-08T12:09:24.240Z,6.85
2022-12-08T12:12:27.613Z,5.97
2022-12-08T12:15:13.867Z,7.18
2022-12-08T12:17:43.908Z,8.20
2022-12-08T12:20:32.082Z,7.63
2022-12-08T12:23:07.954Z,5.13
2022-12-08T12:25:42.286Z,4.38
2022-12-08T12:28:14.846Z,7.95
2022-12-08T12:31:00.989Z,7.38
2022-12-08T12:33:32.994Z,6.13
2022-12-08T12:36:11.599Z,5.80
2022-12-08T12:39:04.423Z,9.35
2022-12-08T12:41:59.912Z,7.03
2022-12-08T12:44:29.837Z,5.18
2022-12-08T12:47:03.589Z,6.45
2022-12-08T12:49:44.925Z,7.50
2022-12-08T12:52:19.264Z,4.15
2022-12-08T12:54:52.283Z,6.10
2022-12-08T12:57:26.046Z,4.90
2022-12-08T12:59:56.279Z,6.40
2022-12-08T13:02:31.913Z,5.55
2022-12-08T13:05:11.446Z,4.85
2022-12-08T13:08:27.695Z,3.72
2022-12-08T13:11:10.924Z,5.50
2022-12-08T13:14:01.371Z,5.55
2022-12-08T13:16:38.923Z,9.13
2022-12-08T13:19:19.370Z,7.60
2022-12-08T13:21:49.389Z,4.63
2022-12-08T13:24:39.785Z,4.70
2022-12-08T13:27:09.705Z,6.47
2022-12-08T13:29:41.196Z,4.25
2022-12-08T13:32:11.126Z,5.80
2022-12-08T13:34:55.181Z,5.65
2022-12-08T13:37:53.993Z,4.47
2022-12-08T13:40:31.214Z,5.75
2022-12-08T13:43:19.264Z,4.57
2022-12-08T13:55:20.032Z,6.45
2022-12-08T13:57:37.677Z,4.78
2022-12-08T14:00:16.191Z,5.50
2022-12-08T14:02:51.410Z,6.57
2022-12-08T14:05:47.485Z,5.63
2022-12-08T14:08:57.781Z,6.78
2022-12-08T14:11:36.577Z,5.72
2022-12-08T14:14:14.452Z,8.18
2022-12-08T14:16:56.520Z,5.40
2022-12-08T14:19:29.500Z,10.05
2022-12-08T14:22:14.200Z,7.35
2022-12-08T14:24:49.526Z,6.40
2022-12-08T14:27:34.613Z,8.27
2022-12-08T14:30:29.546Z,9.50
2022-12-08T14:33:04.643Z,6.10
2022-12-08T14:35:39.564Z,6.55
2022-12-08T14:38:18.739Z,5.13
2022-12-08T14:41:10.526Z,5.25
2022-12-08T14:43:42.021Z,7.10
2022-12-08T14:46:23.896Z,6.75
2022-12-08T14:48:55.782Z,5.20
2022-12-08T14:51:32.445Z,5.38
2022-12-08T14:54:09.577Z,5.57
2022-12-08T14:56:42.992Z,5.10
2022-12-08T14:59:33.843Z,5.10
2022-12-08T15:02:26.318Z,7.78
2022-12-08T15:05:07.341Z,7.43
2022-12-08T15:07:55.991Z,7.28
2022-12-08T15:10:32.102Z,5.72
2022-12-08T15:13:08.552Z,5.80
2022-12-08T15:15:54.076Z,8.38
2022-12-08T15:18:41.826Z,8.00
2022-12-08T15:21:14.084Z,6.57
2022-12-08T15:23:53.186Z,8.45
2022-12-08T15:26:25.880Z,5.35
2022-12-08T15:28:57.145Z,5.97
2022-12-08T15:31:27.254Z,5.22
2022-12-08T15:33:57.643Z,5.95
2022-12-08T15:36:28.025Z,8.65
2022-12-08T15:38:58.460Z,4.65
2022-12-08T15:41:28.477Z,4.43
2022-12-08T15:43:59.310Z,8.45
2022-12-08T15:46:29.399Z,6.70
2022-12-08T15:48:59.926Z,6.63
2022-12-08T15:51:32.073Z,8.38
2022-12-08T15:54:02.425Z,5.20
2022-12-08T15:56:34.215Z,6.60
2022-12-08T15:59:04.747Z,7.47
2022-12-08T16:01:34.771Z,6.75
2022-12-08T16:05:06.328Z,9.82
2022-12-08T16:09:46.702Z,8.35
2022-12-08T16:16:00.692Z,7.20
2022-12-08T16:18:37.345Z,6.57
2022-12-08T16:21:17.026Z,6.60
2022-12-08T16:23:57.919Z,11.48
2022-12-08T16:27:28.490Z,6.35
2022-12-08T16:29:22.182Z,7.03
2022-12-08T16:31:53.025Z,6.15
2022-12-08T16:34:23.005Z,6.45
2022-12-08T16:36:54.230Z,8.60
2022-12-08T16:39:24.268Z,5.28
2022-12-08T16:42:12.936Z,6.05
2022-12-08T16:44:43.635Z,5.75
2022-12-08T16:47:14.153Z,4.88
2022-12-08T16:49:44.416Z,6.30
2022-12-08T16:52:14.794Z,5.30
2022-12-08T16:54:44.933Z,5.07
2022-12-08T16:57:15.462Z,8.40
2022-12-08T16:59:45.495Z,6.15
2022-12-08T17:02:16.685Z,6.53
2022-12-08T17:04:46.781Z,6.10
2022-12-08T17:07:17.458Z,4.82
2022-12-08T17:09:47.524Z,7.13
2022-12-08T17:12:18.120Z,6.95
2022-12-08T17:14:48.231Z,5.50
2022-12-08T17:17:21.706Z,5.15
2022-12-08T17:19:51.703Z,8.98
2022-12-08T17:22:22.076Z,7.05
2022-12-08T17:24:52.129Z,7.55
2022-12-08T17:27:22.670Z,8.40
2022-12-08T17:29:52.628Z,6.13
2022-12-08T17:32:25.337Z,5.32
2022-12-08T17:34:55.379Z,7.40
2022-12-08T17:37:25.744Z,6.15
2022-12-08T17:40:01.500Z,7.15
2022-12-08T17:42:31.816Z,4.30
2022-12-08T17:45:01.879Z,4.53
2022-12-08T17:47:32.557Z,5.30
2022-12-08T17:50:03.161Z,8.90
2022-12-08T17:52:34.241Z,6.78
2022-12-08T17:55:05.195Z,10.02
2022-12-08T17:57:35.639Z,10.63
2022-12-08T18:00:06.557Z,5.75
2022-12-08T18:02:41.584Z,8.13
2022-12-08T18:05:11.730Z,7.22
2022-12-08T18:07:42.211Z,5.32
2022-12-08T18:10:12.362Z,9.85
2022-12-08T18:12:42.851Z,6.35
2022-12-08T18:15:16.856Z,7.88
2022-12-08T18:17:47.957Z,7.13
2022-12-08T18:20:18.155Z,8.60
2022-12-08T18:22:48.577Z,7.35
2022-12-08T18:25:18.422Z,7.13
2022-12-08T18:27:48.912Z,6.13
2022-12-08T18:30:20.491Z,8.00
2022-12-08T18:32:55.728Z,8.15
2022-12-08T18:35:28.130Z,6.40
2022-12-08T18:38:02.543Z,8.20
2022-12-08T18:40:32.835Z,9.55
2022-12-08T18:43:03.212Z,4.93
2022-12-08T18:45:33.676Z,7.05
2022-12-08T18:48:04.705Z,5.68
2022-12-08T18:50:34.661Z,8.95
2022-12-08T18:53:04.410Z,8.07
2022-12-08T18:55:34.938Z,7.40
2022-12-08T18:58:04.980Z,9.07
2022-12-08T19:00:35.611Z,7.30
2022-12-08T19:03:05.690Z,8.15
2022-12-08T19:05:36.154Z,6.60
2022-12-08T19:08:06.344Z,7.35
2022-12-08T19:10:39.480Z,6.97
2022-12-08T19:13:12.475Z,5.70
2022-12-08T19:15:42.972Z,7.97
2022-12-08T19:18:13.017Z,6.78
2022-12-08T19:20:43.494Z,4.65
2022-12-08T19:23:16.938Z,5.72
2022-12-08T19:25:47.329Z,9.77
2022-12-08T19:28:17.340Z,11.57
2022-12-08T19:30:47.800Z,6.82
2022-12-08T19:33:17.919Z,6.88
2022-12-08T19:35:52.638Z,6.47
2022-12-08T19:38:22.987Z,5.13
2022-12-08T19:41:11.323Z,7.07
2022-12-08T19:43:59.642Z,11.18
2022-12-08T19:46:30.618Z,8.55
2022-12-08T19:49:02.617Z,9.27
2022-12-08T19:51:32.524Z,6.43
2022-12-08T19:54:03.330Z,7.07
2022-12-08T19:56:33.332Z,6.75
2022-12-08T19:59:03.918Z,6.07
2022-12-08T20:01:34.011Z,9.13
2022-12-08T20:04:04.428Z,6.45
2022-12-08T20:06:34.575Z,10.30
2022-12-08T20:09:05.057Z,6.70
2022-12-08T20:11:35.125Z,8.95
2022-12-08T20:14:05.596Z,6.45
2022-12-08T20:16:37.849Z,7.93
2022-12-08T20:19:08.412Z,11.57
2022-12-08T20:21:38.394Z,9.85
2022-12-08T20:24:08.971Z,10.98
2022-12-08T20:26:38.993Z,8.23
2022-12-08T20:29:09.709Z,10.27
2022-12-08T20:31:40.153Z,6.53
2022-12-08T20:34:20.816Z,9.40
2022-12-08T20:36:51.016Z,10.52
2022-12-08T20:39:21.645Z,8.13
2022-12-08T20:41:53.224Z,13.60
2022-12-08T20:44:23.952Z,13.25
2022-12-08T20:46:54.267Z,9.02
2022-12-08T20:49:44.222Z,9.15
2022-12-08T20:52:14.855Z,11.57
2022-12-08T20:54:46.140Z,7.68
2022-12-08T20:57:17.437Z,14.00
2022-12-08T20:59:48.110Z,7.75
2022-12-08T21:02:18.576Z,11.00
2022-12-08T21:04:49.298Z,9.68
2022-12-08T21:07:19.493Z,9.30
2022-12-08T21:09:50.521Z,8.27
2022-12-08T21:12:22.551Z,8.48
2022-12-08T21:14:53.418Z,10.43
2022-12-08T21:17:23.779Z,7.45
2022-12-08T21:19:54.874Z,9.32
2022-12-08T21:22:25.103Z,14.38
2022-12-08T21:24:55.763Z,17.85
2022-12-08T21:27:26.033Z,12.10
2022-12-08T21:29:56.861Z,10.77
2022-12-08T21:32:30.358Z,18.58
2022-12-08T21:35:01.909Z,13.45
2022-12-08T21:37:32.015Z,14.05
2022-12-08T21:40:06.526Z,9.27
2022-12-08T21:42:46.248Z,12.23
2022-12-08T21:45:19.496Z,10.93
2022-12-08T21:47:51.611Z,8.05
2022-12-08T21:50:22.473Z,11.95
2022-12-08T21:52:52.617Z,10.60
2022-12-08T21:55:24.757Z,15.07
2022-12-08T21:57:57.217Z,10.20
2022-12-08T22:00:27.514Z,10.40
2022-12-08T22:02:58.891Z,11.38
2022-12-08T22:05:29.233Z,9.45
2022-12-08T22:08:00.223Z,13.73
2022-12-08T22:10:30.577Z,11.85
2022-12-08T22:13:01.132Z,8.50
2022-12-08T22:15:31.379Z,9.55
2022-12-08T22:18:02.101Z,14.57
2022-12-08T22:20:32.455Z,11.93
2022-12-08T22:23:03.095Z,9.93
2022-12-08T22:25:35.756Z,8.25
2022-12-08T22:28:06.452Z,11.70
2022-12-08T22:30:39.251Z,8.55
2022-12-08T22:33:10.154Z,10.63
2022-12-08T22:35:40.196Z,8.73
2022-12-08T22:38:13.195Z,6.95
2022-12-08T22:40:45.989Z,9.10
2022-12-08T22:43:16.616Z,10.45
2022-12-08T22:45:46.890Z,6.90
2022-12-08T22:48:18.187Z,11.77
2022-12-08T22:50:48.214Z,13.20
2022-12-08T22:53:19.025Z,12.65
2022-12-08T22:55:49.294Z,10.55
2022-12-08T22:58:21.281Z,9.45
2022-12-08T23:00:51.663Z,13.10
2022-12-08T23:03:22.425Z,10.57
2022-12-08T23:05:53.520Z,8.73
2022-12-08T23:08:24.861Z,15.27
2022-12-08T23:10:55.949Z,10.25
2022-12-08T23:13:26.569Z,12.38
2022-12-08T23:15:56.802Z,14.57
2022-12-08T23:18:27.589Z,13.10
2022-12-08T23:20:57.765Z,12.35
2022-12-08T23:23:28.632Z,11.10
2022-12-08T23:25:58.831Z,9.73
2022-12-08T23:28:29.826Z,12.25
2022-12-08T23:31:00.564Z,8.60
2022-12-08T23:33:31.386Z,10.10
2022-12-08T23:36:02.574Z,13.80
2022-12-08T23:38:32.638Z,12.65
2022-12-08T23:41:07.795Z,16.98
2022-12-08T23:43:38.760Z,14.65
2022-12-08T23:46:08.782Z,15.82
2022-12-08T23:48:39.691Z,10.95
2022-12-08T23:51:10.181Z,11.38
2022-12-08T23:53:41.120Z,16.50
2022-12-08T23:56:15.625Z,10.60
2022-12-08T23:58:47.477Z,14.55
